createdAt,value
2022-12-31T00:01:48.145Z,2.72
2022-12-31T00:04:15.125Z,2.75
2022-12-31T00:06:42.658Z,2.79
2022-12-31T00:09:14.270Z,2.78
2022-12-31T00:11:41.193Z,2.73
2022-12-31T00:14:08.319Z,2.75
2022-12-31T00:16:44.705Z,2.80
2022-12-31T00:19:20.478Z,2.73
2022-12-31T00:21:50.943Z,2.82
2022-12-31T00:24:24.313Z,2.80
2022-12-31T00:26:53.848Z,2.77
2022-12-31T00:29:20.856Z,2.83
2022-12-31T00:31:54.506Z,2.82
2022-12-31T00:34:23.322Z,2.79
2022-12-31T00:36:50.302Z,2.81
2022-12-31T00:39:20.524Z,2.78
2022-12-31T00:41:49.207Z,2.78
2022-12-31T00:44:20.045Z,2.69
2022-12-31T00:46:47.070Z,2.77
2022-12-31T00:49:14.314Z,2.74
2022-12-31T00:51:41.429Z,2.70
2022-12-31T00:56:52.073Z,2.68
2022-12-31T00:59:21.911Z,2.68
2022-12-31T01:01:52.533Z,2.70
2022-12-31T01:04:21.026Z,2.68
2022-12-31T01:06:48.380Z,2.61
2022-12-31T01:09:18.582Z,2.61
2022-12-31T01:11:53.380Z,2.67
2022-12-31T01:14:22.179Z,2.59
2022-12-31T01:16:58.533Z,2.66
2022-12-31T01:19:35.373Z,2.68
2022-12-31T01:22:05.112Z,2.60
2022-12-31T01:24:32.125Z,2.58
2022-12-31T01:26:59.113Z,2.59
2022-12-31T01:29:29.850Z,2.59
2022-12-31T01:31:59.105Z,2.58
2022-12-31T01:34:26.111Z,2.58
2022-12-31T01:36:53.177Z,2.53
2022-12-31T01:39:20.166Z,2.54
2022-12-31T01:41:59.056Z,2.53
2022-12-31T01:44:25.987Z,2.52
2022-12-31T01:47:06.918Z,2.52
2022-12-31T01:49:54.590Z,2.52
2022-12-31T01:52:29.797Z,2.49
2022-12-31T01:55:06.141Z,2.44
2022-12-31T01:57:35.485Z,2.45
2022-12-31T02:00:06.656Z,2.51
2022-12-31T02:02:36.052Z,2.50
2022-12-31T02:05:12.534Z,2.52
2022-12-31T02:07:41.683Z,2.52
2022-12-31T02:10:10.630Z,2.51
2022-12-31T02:12:39.529Z,2.55
2022-12-31T02:15:55.594Z,2.54
2022-12-31T02:18:40.633Z,2.53
2022-12-31T02:21:49.228Z,2.52
2022-12-31T02:24:46.996Z,2.52
2022-12-31T02:27:23.972Z,2.42
2022-12-31T02:30:22.608Z,2.48
2022-12-31T02:33:06.164Z,2.43
2022-12-31T02:36:06.150Z,2.46
2022-12-31T02:38:36.589Z,2.39
2022-12-31T02:41:06.711Z,2.45
2022-12-31T02:43:36.028Z,2.41
2022-12-31T02:46:32.356Z,2.48
2022-12-31T02:49:29.054Z,2.37
2022-12-31T02:52:15.256Z,2.41
2022-12-31T02:55:06.296Z,2.34
2022-12-31T02:58:10.228Z,2.43
2022-12-31T03:01:06.956Z,2.42
2022-12-31T03:03:41.021Z,2.31
2022-12-31T03:06:13.872Z,2.33
2022-12-31T03:09:03.722Z,2.39
2022-12-31T03:11:52.050Z,2.31
2022-12-31T03:14:22.521Z,2.35
2022-12-31T03:16:51.150Z,2.37
2022-12-31T03:19:36.694Z,2.31
2022-12-31T03:22:25.113Z,2.32
2022-12-31T03:25:11.859Z,2.35
2022-12-31T03:27:40.396Z,2.41
2022-12-31T03:30:12.850Z,2.41
2022-12-31T03:32:53.337Z,2.37
2022-12-31T03:35:24.641Z,2.26
2022-12-31T03:37:56.660Z,2.26
2022-12-31T03:40:30.143Z,2.27
2022-12-31T03:43:00.196Z,2.26
2022-12-31T03:45:37.110Z,2.09
2022-12-31T03:48:10.652Z,2.02
2022-12-31T03:50:41.939Z,2.08
2022-12-31T03:53:44.772Z,2.06
2022-12-31T03:56:15.622Z,2.06
2022-12-31T03:58:42.952Z,2.03
2022-12-31T04:01:13.361Z,1.92
2022-12-31T04:03:42.302Z,1.77
2022-12-31T04:06:12.486Z,1.80
2022-12-31T04:09:00.791Z,1.73
2022-12-31T04:11:30.567Z,1.67
2022-12-31T04:14:00.281Z,1.75
2022-12-31T04:16:31.631Z,1.67
2022-12-31T04:19:01.804Z,1.68
2022-12-31T04:21:35.465Z,1.61
2022-12-31T04:24:05.180Z,1.54
2022-12-31T04:26:36.591Z,1.46
2022-12-31T04:29:07.737Z,1.54
2022-12-31T04:31:40.231Z,1.35
2022-12-31T04:34:13.487Z,1.35
2022-12-31T04:36:50.231Z,1.41
2022-12-31T04:39:17.605Z,1.46
2022-12-31T04:41:44.922Z,1.55
2022-12-31T04:44:13.436Z,1.44
2022-12-31T04:46:44.654Z,1.57
2022-12-31T04:49:14.851Z,1.43
2022-12-31T04:51:42.073Z,1.54
2022-12-31T04:54:11.165Z,1.53
2022-12-31T04:56:38.297Z,1.52
2022-12-31T04:59:09.139Z,1.54
2022-12-31T05:01:41.987Z,1.48
2022-12-31T05:04:09.089Z,1.50
2022-12-31T05:06:37.284Z,1.39
2022-12-31T05:09:04.612Z,1.45
2022-12-31T05:11:31.754Z,1.39
2022-12-31T05:13:58.865Z,1.34
2022-12-31T05:16:26.079Z,1.33
2022-12-31T05:18:55.065Z,1.39
2022-12-31T05:21:22.512Z,1.37
2022-12-31T05:23:49.659Z,1.40
2022-12-31T05:26:16.953Z,1.41
2022-12-31T05:28:43.984Z,1.38
2022-12-31T05:31:10.959Z,1.36
2022-12-31T05:33:38.147Z,1.36
2022-12-31T05:36:05.513Z,1.43
2022-12-31T05:38:32.454Z,1.39
2022-12-31T05:41:04.054Z,1.44
2022-12-31T05:43:32.157Z,1.45
2022-12-31T05:46:04.153Z,1.42
2022-12-31T05:48:31.576Z,1.40
2022-12-31T05:50:58.910Z,1.42
2022-12-31T05:53:25.949Z,1.44
2022-12-31T05:55:53.095Z,1.45
2022-12-31T05:58:20.113Z,1.38
2022-12-31T06:00:47.383Z,1.49
2022-12-31T06:03:15.087Z,1.47
2022-12-31T06:05:43.122Z,1.48
2022-12-31T06:08:13.961Z,1.50
2022-12-31T06:10:43.966Z,1.56
2022-12-31T06:13:12.331Z,1.51
2022-12-31T06:15:40.384Z,1.54
2022-12-31T06:18:07.803Z,1.42
2022-12-31T06:20:38.644Z,1.41
2022-12-31T06:23:06.197Z,1.65
2022-12-31T06:25:38.403Z,1.63
2022-12-31T06:28:05.889Z,1.68
2022-12-31T06:30:33.844Z,1.69
2022-12-31T06:33:00.830Z,1.71
2022-12-31T06:35:27.834Z,1.70
2022-12-31T06:37:54.904Z,1.77
2022-12-31T06:40:22.503Z,1.75
2022-12-31T06:42:54.618Z,1.66
2022-12-31T06:45:24.967Z,1.75
2022-12-31T06:47:51.946Z,1.74
2022-12-31T06:50:18.964Z,1.72
2022-12-31T06:52:46.100Z,1.75
2022-12-31T06:55:17.020Z,1.73
2022-12-31T06:57:44.272Z,1.70
2022-12-31T07:00:17.018Z,1.64
2022-12-31T07:03:25.472Z,1.80
2022-12-31T07:06:19.987Z,1.78
2022-12-31T07:09:08.526Z,1.62
2022-12-31T07:11:47.055Z,1.67
2022-12-31T07:14:37.675Z,1.67
2022-12-31T07:17:26.302Z,1.77
2022-12-31T07:20:02.096Z,1.77
2022-12-31T07:22:37.613Z,1.68
2022-12-31T07:25:30.977Z,1.85
2022-12-31T07:28:07.061Z,1.93
2022-12-31T07:30:41.557Z,1.96
2022-12-31T07:33:38.808Z,1.91
2022-12-31T07:36:48.871Z,2.01
2022-12-31T07:39:46.933Z,1.99
2022-12-31T07:42:23.740Z,1.99
2022-12-31T07:45:19.629Z,2.05
2022-12-31T07:47:57.467Z,2.00
2022-12-31T07:50:28.716Z,1.92
2022-12-31T07:52:59.486Z,2.03
2022-12-31T07:55:27.248Z,1.94
2022-12-31T07:58:35.099Z,2.07
2022-12-31T08:01:04.000Z,2.16
2022-12-31T08:03:31.304Z,2.21
2022-12-31T08:06:17.271Z,2.24
2022-12-31T08:09:06.036Z,2.13
2022-12-31T08:11:44.103Z,2.20
2022-12-31T08:14:14.194Z,2.26
2022-12-31T08:16:44.772Z,2.20
2022-12-31T08:19:43.125Z,2.24
2022-12-31T08:26:27.092Z,2.23
2022-12-31T08:29:45.273Z,2.25
2022-12-31T08:32:34.380Z,2.26
2022-12-31T08:35:29.967Z,2.27
2022-12-31T08:38:05.272Z,2.23
2022-12-31T08:40:48.076Z,2.20
2022-12-31T08:43:53.321Z,2.24
2022-12-31T08:46:28.742Z,2.14
2022-12-31T08:49:33.212Z,2.12
2022-12-31T08:55:57.535Z,2.32
2022-12-31T08:58:40.124Z,2.35
2022-12-31T09:01:47.044Z,2.27
2022-12-31T09:04:42.438Z,2.29
2022-12-31T09:07:32.621Z,2.42
2022-12-31T09:10:17.266Z,2.53
2022-12-31T09:13:32.976Z,2.64
2022-12-31T09:16:30.458Z,2.61
2022-12-31T09:19:00.120Z,2.54
2022-12-31T09:21:27.360Z,2.50
2022-12-31T09:23:54.630Z,2.49
2022-12-31T09:26:30.505Z,2.52
2022-12-31T09:29:03.367Z,2.54
2022-12-31T09:31:42.967Z,2.55
2022-12-31T09:34:18.362Z,2.53
2022-12-31T09:36:50.772Z,2.58
2022-12-31T09:39:36.499Z,2.60
2022-12-31T09:46:28.012Z,2.56
